Nearby METAR Reports

 

KBML - Berlin, NH
Updated: Wed, 16-Aug-2017 4:52pm EDT
Clear
Clear
 Wind from W
Wind: W 8 mph , 13 km/h
Temperature: 70°F , 21°C
Dew Point: 43°F , 6°C
Humidity: 38%
Barometer: 29.97 inHg , 1014.9 hPa
Clouds: Clear
Visibility: 10 miles , 16 km
2017/08/16 20:52 KBML 162052Z AUTO 27007KT 190V310 10SM CLR 21/06 A2997 RMK AO2 SLP148 T02110056 58004
KCON - Concord, NH
Updated: Wed, 16-Aug-2017 4:51pm EDT
Clear
Clear
 Wind from WNW
Wind: WNW 10 mph , 17 km/h, Gust: 22 mph , 35 km/h
Temperature: 79°F , 26°C
Dew Point: 52°F , 11°C
Humidity: 39%
Barometer: 29.94 inHg , 1013.9 hPa
Clouds: Clear
Visibility: 10 miles , 16 km
2017/08/16 20:51 KCON 162051Z AUTO 29009G19KT 10SM CLR 26/11 A2994 RMK AO2 SLP137 T02610106 56005
KAFN - Lebanon, NH
Updated: Wed, 16-Aug-2017 4:52pm EDT
Few Clouds
Few Clouds
 Wind from NW
Wind: NW 8 mph , 13 km/h
Temperature: 77°F , 25°C
Dew Point: 55°F , 13°C
Humidity: 47%
Barometer: 29.98 inHg , 1015.2 hPa
Clouds: Few Clouds
Visibility: 10 miles , 16 km
Cloud details: Few Clouds 5500 ft
2017/08/16 20:52 KAFN 162052Z AUTO 32007KT 290V350 10SM FEW055 25/13 A2998 RMK AO2 SLP151 T02500133 55005
 
KMHT - Manchester, NH
Updated: Wed, 16-Aug-2017 4:53pm EDT
Mostly cloudy
Mostly cloudy
 Wind from NW
Wind: NW 10 mph , 17 km/h, Gust: 21 mph , 33 km/h
Temperature: 81°F , 27°C
Dew Point: 52°F , 11°C
Humidity: 37%
Barometer: 29.92 inHg , 1013.2 hPa
Clouds: Mostly cloudy
Visibility: 10 miles , 16 km
Cloud details: Few Clouds 5500 ft
Mostly cloudy 25000 ft
2017/08/16 20:53 KMHT 162053Z 32009G18KT 10SM FEW055 BKN250 27/11 A2992 RMK AO2 SLP139 T02670111 55006
KMWN - Mount Washington
Updated: Wed, 16-Aug-2017 4:48pm EDT
Partly cloudy
Partly cloudy
 Wind from WNW
Wind: WNW 40 mph , 65 km/h, Gust: 47 mph , 76 km/h
Temperature: 43°F , 6°C
Wind Chill: 31°F , -1°C
Dew Point: 39°F , 4°C
Humidity: 87%
Clouds: Partly cloudy
Visibility: 100 miles , 160 km
Cloud details: Few Clouds 400 ft
Partly cloudy 18000 ft
2017/08/16 20:48 KMWN 162048Z 30035G41KT 100SM FEW004 SCT180 06/04 RMK
K25B - Portsmouth Harbor
Updated: Wed, 31-Dec-1969 7:00pm EST
NOT Current
unable to load K25B data RC=404 Not Found
unable to load K25B data RC=404 Not Found
 
 
KDDH - Bennington, VT
Updated: Wed, 16-Aug-2017 4:54pm EDT
Few Clouds
Few Clouds
 Wind from NW
Wind: NW 6 mph , 9 km/h
Temperature: 79°F , 26°C
Dew Point: 61°F , 16°C
Humidity: 54%
Barometer: 29.97 inHg , 1014.9 hPa
Clouds: Few Clouds
Visibility: 10 miles , 16 km
Cloud details: Few Clouds 5000 ft
2017/08/16 20:54 KDDH 162054Z AUTO 31005KT 10SM FEW050 26/16 A2997 RMK AO2 SLP145 T02560161 56010
K9B2 - Newport, VT
Updated: Wed, 31-Dec-1969 7:00pm EST
NOT Current
unable to load K9B2 data RC=404 Not Found
unable to load K9B2 data RC=404 Not Found
 
K1V4 - St Johnsbury, VT
Updated: Wed, 16-Aug-2017 4:54pm EDT

 
Temperature: 72°F , 22°C
Dew Point: 46°F , 8°C
Humidity: 41%
Barometer: 29.97 inHg , 1014.9 hPa
2017/08/16 20:54 K1V4 162054Z AUTO 22/08 A2997 RMK AO1 SLP141 T02170078 58005
 
KBGR - Bangor, ME
Updated: Wed, 16-Aug-2017 4:53pm EDT
Few Clouds
Few Clouds
 Wind from NW
Wind: NW 17 mph , 28 km/h, Gust: 24 mph , 39 km/h
Temperature: 75°F , 24°C
Dew Point: 43°F , 6°C
Humidity: 31%
Barometer: 29.88 inHg , 1011.9 hPa
Clouds: Few Clouds
Visibility: 10 miles , 16 km
Cloud details: Few Clouds 6000 ft
Few Clouds 25000 ft
2017/08/16 20:53 KBGR 162053Z 31015G21KT 10SM FEW060 FEW250 24/06 A2988 RMK AO2 SLP114 T02390056 58000
KBHB - Bar Harbor, ME
Updated: Wed, 16-Aug-2017 4:56pm EDT
Clear
Clear
 Wind from NNW
Wind: NNW 9 mph , 15 km/h
Temperature: 75°F , 24°C
Dew Point: 45°F , 7°C
Humidity: 34%
Barometer: 29.86 inHg , 1011.2 hPa
Clouds: Clear
Visibility: 10 miles , 16 km
2017/08/16 20:56 KBHB 162056Z AUTO 33008KT 10SM CLR 24/07 A2986 RMK AO2 SLP114 T02390067 50001 $
74389 - Gray, ME
Updated: Wed, 31-Dec-1969 7:00pm EST
NOT Current
74389 not loaded
74389 not loaded
 
 
KGNR - Greenville,ME
Updated: Wed, 16-Aug-2017 4:56pm EDT

 Wind from NW
Wind: NW 16 mph , 26 km/h, Gust: 21 mph , 33 km/h
Temperature: 64°F , 18°C
Dew Point: 45°F , 7°C
Humidity: 49%
Barometer: 29.91 inHg , 1012.9 hPa
2017/08/16 20:56 KGNR 162056Z AUTO 32014G18KT 18/07 A2991 RMK AO1 SLP127 T01780072 53000
KOLD - Old Town, ME
Updated: Wed, 31-Dec-1969 7:00pm EST
NOT Current
unable to load KOLD data RC=404 Not Found
unable to load KOLD data RC=404 Not Found
 
KRUM - Rumford, ME
Updated: Wed, 31-Dec-1969 7:00pm EST
NOT Current
unable to load KRUM data RC=404 Not Found
unable to load KRUM data RC=404 Not Found
 






USA Weather Finder


World Weather Websites





Hit Counter
Contact Us

© 2017, johnsnhweather | Weather-Display (10.37S-(b54)) | Valid XHTML 1.0 | Valid CSS

This website is neither affiliated with nor endorsed by the National Weather Service, the town of Pittsburg or any other government agency.
The weather data contained herein is offered without any warranties expressed or implied, and is meant to supplement NOAA weather forecasts and information. Never base important decisions that could result in harm to people or property on this weather information.